Time;durP1;ratioP1;P1;durP2;ratioP2;P2;SDS_P1;SDS_P2;PMS_P1;PMS_P2;Temp;Humidity;BMP_temperature;BMP_pressure;BME280_temperature;BME280_humidity;BME280_pressure;Samples;Min_cycle;Max_cycle;Signal;HPM_P1;HPM_P2
2024/01/27 00:01:34;;;;;;;24.10;3.88;;;4.60;99.90;;;;;;5058722;28;20379;-76
2024/01/27 00:04:00;;;;;;;28.73;4.03;;;4.60;99.90;;;;;;5072109;28;20028;-75
2024/01/27 00:06:26;;;;;;;30.30;4.20;;;4.60;99.90;;;;;;5053399;28;20021;-75
2024/01/27 00:08:51;;;;;;;22.65;3.28;;;4.60;99.90;;;;;;5052621;28;20108;-76
2024/01/27 00:11:17;;;;;;;31.10;4.43;;;4.60;99.90;;;;;;5064978;28;20029;-76
2024/01/27 00:13:43;;;;;;;23.40;3.78;;;4.60;99.90;;;;;;5060206;28;20020;-76
2024/01/27 00:16:09;;;;;;;29.80;4.28;;;4.50;99.90;;;;;;5054627;28;20028;-76
2024/01/27 00:18:38;;;;;;;24.02;4.45;;;4.50;99.90;;;;;;5052239;28;20498;-76
2024/01/27 00:21:05;;;;;;;29.48;3.90;;;4.50;99.90;;;;;;5055069;28;20032;-76
2024/01/27 00:23:32;;;;;;;23.40;3.58;;;4.50;99.90;;;;;;5058313;28;20012;-76
2024/01/27 00:25:58;;;;;;;28.00;3.63;;;4.50;99.90;;;;;;5059116;28;20021;-76
2024/01/27 00:28:23;;;;;;;29.02;4.00;;;4.50;99.90;;;;;;5051758;28;20120;-76
2024/01/27 00:30:49;;;;;;;32.53;3.70;;;4.50;99.90;;;;;;5053630;28;20111;-76
2024/01/27 00:33:14;;;;;;;27.45;3.95;;;4.50;99.90;;;;;;5061999;28;20035;-76
2024/01/27 00:35:40;;;;;;;27.77;4.18;;;4.50;99.90;;;;;;5060479;28;20093;-76
2024/01/27 00:38:06;;;;;;;26.33;4.07;;;4.50;99.90;;;;;;5058991;28;20411;-76
2024/01/27 00:40:31;;;;;;;24.35;4.13;;;4.50;99.90;;;;;;5051482;28;20056;-76
2024/01/27 00:42:57;;;;;;;23.55;3.70;;;4.40;99.90;;;;;;5061619;28;20375;-76
2024/01/27 00:45:22;;;;;;;27.48;4.15;;;4.40;99.90;;;;;;5054824;28;20013;-76
2024/01/27 00:47:50;;;;;;;26.52;3.63;;;4.40;99.90;;;;;;5056529;28;20025;-76
2024/01/27 00:50:16;;;;;;;31.73;4.35;;;4.40;99.90;;;;;;5069965;28;20032;-76
2024/01/27 00:52:41;;;;;;;24.48;3.45;;;4.40;99.90;;;;;;5055209;28;20029;-76
2024/01/27 00:55:07;;;;;;;35.38;4.05;;;4.40;99.90;;;;;;5059203;28;20021;-76
2024/01/27 00:57:33;;;;;;;25.00;4.05;;;4.40;99.90;;;;;;5056613;28;20029;-76
2024/01/27 00:59:59;;;;;;;24.10;3.47;;;4.40;99.90;;;;;;5062891;28;20032;-76
2024/01/27 01:02:24;;;;;;;20.23;3.80;;;4.40;99.90;;;;;;5052951;28;20056;-76
2024/01/27 01:04:50;;;;;;;28.70;3.75;;;4.40;99.90;;;;;;5053285;28;20028;-76
2024/01/27 01:07:16;;;;;;;26.17;3.70;;;4.40;99.90;;;;;;5051964;28;20028;-76
2024/01/27 01:09:41;;;;;;;30.52;4.18;;;4.40;99.90;;;;;;5051525;28;20036;-76
2024/01/27 01:12:07;;;;;;;19.02;3.35;;;4.40;99.90;;;;;;5051456;28;20025;-76
2024/01/27 01:14:32;;;;;;;31.55;3.55;;;4.40;99.90;;;;;;5060228;28;20021;-76
2024/01/27 01:16:58;;;;;;;22.05;3.70;;;4.40;99.90;;;;;;5050996;28;20020;-76
2024/01/27 01:19:24;;;;;;;26.00;3.53;;;4.40;99.90;;;;;;5054176;28;20568;-76
2024/01/27 01:21:49;;;;;;;21.38;3.30;;;4.40;99.90;;;;;;5051402;28;20464;-75
2024/01/27 01:24:15;;;;;;;27.77;3.85;;;4.30;99.90;;;;;;5061925;28;20051;-76
2024/01/27 01:26:40;;;;;;;19.75;3.55;;;4.30;99.90;;;;;;5051328;28;20091;-76
2024/01/27 01:29:06;;;;;;;28.25;3.65;;;4.30;99.90;;;;;;5061371;28;20020;-76
2024/01/27 01:31:32;;;;;;;17.75;3.65;;;4.30;99.90;;;;;;5068766;28;20020;-76
2024/01/27 01:33:58;;;;;;;23.85;3.65;;;4.30;99.90;;;;;;5061527;28;20017;-76
2024/01/27 01:36:23;;;;;;;22.95;3.45;;;4.30;99.90;;;;;;5060172;28;20154;-76
2024/01/27 01:38:49;;;;;;;25.02;3.88;;;4.30;99.90;;;;;;5052186;28;20376;-76
2024/01/27 01:41:14;;;;;;;24.30;3.33;;;4.30;99.90;;;;;;5050173;28;20503;-76
2024/01/27 01:43:40;;;;;;;24.80;3.17;;;4.30;99.90;;;;;;5061246;28;20021;-75
2024/01/27 01:46:06;;;;;;;19.65;3.22;;;4.30;99.90;;;;;;5063591;28;20024;-76
2024/01/27 01:48:31;;;;;;;24.42;3.08;;;4.30;99.90;;;;;;5051862;28;20021;-76
2024/01/27 01:50:59;;;;;;;22.30;3.03;;;4.30;99.90;;;;;;5059170;28;20494;-75
2024/01/27 01:53:25;;;;;;;22.98;3.47;;;4.20;99.90;;;;;;5054554;28;20316;-75
2024/01/27 01:55:52;;;;;;;20.88;3.30;;;4.30;99.90;;;;;;5053730;28;20450;-75
2024/01/27 01:58:18;;;;;;;24.13;3.20;;;4.20;99.90;;;;;;5062191;28;20167;-75
2024/01/27 02:00:44;;;;;;;17.30;2.85;;;4.30;99.90;;;;;;5067114;28;20109;-75
2024/01/27 02:03:13;;;;;;;24.67;2.80;;;4.20;99.90;;;;;;5062400;28;20028;-76
2024/01/27 02:05:39;;;;;;;27.40;3.65;;;4.20;99.90;;;;;;5050326;28;20506;-76
2024/01/27 02:08:05;;;;;;;22.52;3.08;;;4.20;99.90;;;;;;5058480;28;20033;-76
2024/01/27 02:10:36;;;;;;;28.88;3.10;;;4.20;99.90;;;;;;5058515;28;20475;-76
2024/01/27 02:13:05;;;;;;;25.38;2.78;;;4.20;99.90;;;;;;5053791;28;20028;-76
2024/01/27 02:15:31;;;;;;;20.50;2.88;;;4.20;99.90;;;;;;5054994;28;20507;-76
2024/01/27 02:17:57;;;;;;;21.73;3.15;;;4.20;99.90;;;;;;5054675;28;20043;-76
2024/01/27 02:20:22;;;;;;;22.65;3.40;;;4.20;99.90;;;;;;5056696;28;20049;-75
2024/01/27 02:22:48;;;;;;;21.15;3.08;;;4.20;99.90;;;;;;5051593;28;20025;-75
2024/01/27 02:25:13;;;;;;;22.33;2.90;;;4.20;99.90;;;;;;5059925;28;20021;-75
2024/01/27 02:27:39;;;;;;;32.65;3.85;;;4.20;99.90;;;;;;5066022;28;20427;-75
2024/01/27 02:30:05;;;;;;;22.98;3.20;;;4.20;99.90;;;;;;5060826;28;20079;-75
2024/01/27 02:32:31;;;;;;;20.20;3.25;;;4.20;99.90;;;;;;5060773;28;20094;-75
2024/01/27 02:34:56;;;;;;;26.00;4.05;;;4.20;99.90;;;;;;5055962;28;20025;-75
2024/01/27 02:37:22;;;;;;;25.98;3.00;;;4.20;99.90;;;;;;5066301;28;20031;-75
2024/01/27 02:39:47;;;;;;;26.10;3.20;;;4.20;99.90;;;;;;5065300;28;20060;-75
2024/01/27 02:42:13;;;;;;;22.08;3.20;;;4.20;99.90;;;;;;5063172;28;20017;-76
2024/01/27 02:44:39;;;;;;;31.75;4.15;;;4.20;99.90;;;;;;5064513;28;20075;-76
2024/01/27 02:47:04;;;;;;;20.70;3.42;;;4.20;99.90;;;;;;5049895;28;20071;-76
2024/01/27 02:49:30;;;;;;;17.33;3.05;;;4.20;99.90;;;;;;5054303;28;20027;-76
2024/01/27 02:51:55;;;;;;;23.35;3.72;;;4.20;99.90;;;;;;5058330;28;20529;-76
2024/01/27 02:54:21;;;;;;;15.48;3.17;;;4.20;99.90;;;;;;5055880;28;20437;-76
2024/01/27 02:56:46;;;;;;;20.52;3.55;;;4.10;99.90;;;;;;5049686;28;20028;-76
2024/01/27 02:59:13;;;;;;;24.65;4.07;;;4.10;99.90;;;;;;5060732;28;20499;-76
2024/01/27 03:01:38;;;;;;;23.27;3.72;;;4.10;99.90;;;;;;5058067;28;20021;-76
2024/01/27 03:04:04;;;;;;;24.23;3.53;;;4.10;99.90;;;;;;5063074;28;20565;-76
2024/01/27 03:06:29;;;;;;;19.27;3.60;;;4.10;99.90;;;;;;5054186;28;20433;-76
2024/01/27 03:08:55;;;;;;;21.27;3.90;;;4.10;99.90;;;;;;5053816;28;20033;-76
2024/01/27 03:11:21;;;;;;;28.95;4.30;;;4.10;99.90;;;;;;5055238;28;20373;-76
2024/01/27 03:13:47;;;;;;;24.48;4.25;;;4.10;99.90;;;;;;5067876;28;20691;-76
2024/01/27 03:16:13;;;;;;;21.23;4.43;;;4.10;99.90;;;;;;5058887;28;20062;-75
2024/01/27 03:18:38;;;;;;;24.90;4.53;;;4.00;99.90;;;;;;5056165;28;20048;-75
2024/01/27 03:21:07;;;;;;;26.98;4.88;;;4.10;99.90;;;;;;5054759;28;20377;-76
2024/01/27 03:23:33;;;;;;;20.30;4.15;;;4.00;99.90;;;;;;5058745;28;20032;-75
2024/01/27 03:25:58;;;;;;;25.67;4.80;;;4.00;99.90;;;;;;5062511;28;20016;-76
2024/01/27 03:28:24;;;;;;;23.60;5.07;;;4.00;99.90;;;;;;5062000;28;20025;-75
2024/01/27 03:30:49;;;;;;;27.77;5.20;;;4.00;99.90;;;;;;5055548;28;20017;-75
2024/01/27 03:33:15;;;;;;;23.27;5.00;;;4.00;99.90;;;;;;5069418;28;20017;-75
2024/01/27 03:35:41;;;;;;;21.92;5.32;;;3.90;99.90;;;;;;5060866;28;20048;-75
2024/01/27 03:38:06;;;;;;;29.60;6.30;;;3.90;99.90;;;;;;5059606;28;20035;-75
2024/01/27 03:40:32;;;;;;;29.65;6.05;;;3.90;99.90;;;;;;5062299;28;20025;-75
2024/01/27 03:42:57;;;;;;;22.65;5.97;;;3.90;99.90;;;;;;5069236;28;20109;-75
2024/01/27 03:45:23;;;;;;;27.58;6.72;;;3.80;99.90;;;;;;5064177;28;20016;-75
2024/01/27 03:47:48;;;;;;;34.78;7.25;;;3.80;99.90;;;;;;5062664;28;20447;-75
2024/01/27 03:50:14;;;;;;;32.15;8.43;;;3.80;99.90;;;;;;5067165;28;20040;-75
2024/01/27 03:52:41;;;;;;;27.35;8.10;;;3.80;99.90;;;;;;5052662;28;20017;-75
2024/01/27 03:55:06;;;;;;;33.85;7.82;;;3.80;99.90;;;;;;5052268;28;20025;-75
2024/01/27 03:57:32;;;;;;;30.05;7.57;;;3.80;99.90;;;;;;5069508;28;20036;-75
2024/01/27 03:59:58;;;;;;;36.05;8.65;;;3.70;99.90;;;;;;5072094;28;20476;-76
2024/01/27 04:02:23;;;;;;;30.58;8.68;;;3.80;99.90;;;;;;5062543;28;20433;-76
2024/01/27 04:04:49;;;;;;;35.22;9.75;;;3.70;99.90;;;;;;5055352;28;20029;-76
2024/01/27 04:07:14;;;;;;;27.52;8.75;;;3.70;99.90;;;;;;5065312;28;20070;-76
2024/01/27 04:09:40;;;;;;;33.00;9.85;;;3.70;99.90;;;;;;5057658;28;20048;-76
2024/01/27 04:12:06;;;;;;;32.22;9.57;;;3.70;99.90;;;;;;5055374;28;20502;-76
2024/01/27 04:14:31;;;;;;;34.65;10.27;;;3.70;99.90;;;;;;5062261;28;20112;-76
2024/01/27 04:16:57;;;;;;;29.98;10.57;;;3.70;99.90;;;;;;5059771;28;20444;-76
2024/01/27 04:19:22;;;;;;;40.13;10.43;;;3.70;99.90;;;;;;5062919;28;20132;-75
2024/01/27 04:21:48;;;;;;;30.98;10.52;;;3.70;99.90;;;;;;5060714;28;20408;-76
2024/01/27 04:24:13;;;;;;;24.33;9.45;;;3.70;99.90;;;;;;5061730;28;20036;-76
2024/01/27 04:26:39;;;;;;;25.83;9.80;;;3.60;99.90;;;;;;5053403;28;20024;-76
2024/01/27 04:29:05;;;;;;;31.08;10.68;;;3.60;99.90;;;;;;5052222;28;20146;-76
2024/01/27 04:31:33;;;;;;;43.78;12.52;;;3.60;99.90;;;;;;5052437;28;20432;-76
2024/01/27 04:33:58;;;;;;;35.47;12.23;;;3.60;99.90;;;;;;5058548;28;20019;-76
2024/01/27 04:36:30;;;;;;;26.77;12.80;;;3.60;99.90;;;;;;5059764;28;20395;-76
2024/01/27 04:38:55;;;;;;;29.80;11.85;;;3.60;99.90;;;;;;5056143;28;20496;-76
2024/01/27 04:41:21;;;;;;;32.47;12.27;;;3.60;99.90;;;;;;5058834;28;20441;-75
2024/01/27 04:43:47;;;;;;;32.22;12.30;;;3.60;99.90;;;;;;5054417;28;20375;-76
2024/01/27 04:46:12;;;;;;;35.55;12.52;;;3.60;99.90;;;;;;5067539;28;20138;-76
2024/01/27 04:48:38;;;;;;;39.35;12.13;;;3.50;99.90;;;;;;5066813;28;20016;-76
2024/01/27 04:51:03;;;;;;;38.70;12.98;;;3.50;99.90;;;;;;5066349;28;20571;-76
2024/01/27 04:53:29;;;;;;;33.42;11.07;;;3.50;99.90;;;;;;5065608;28;20023;-76
2024/01/27 04:55:55;;;;;;;35.25;13.38;;;3.50;99.90;;;;;;5054455;28;20013;-76
2024/01/27 04:58:20;;;;;;;32.50;13.07;;;3.60;99.90;;;;;;5051916;28;20029;-76
2024/01/27 05:00:46;;;;;;;32.53;13.10;;;3.50;99.90;;;;;;5051264;28;20535;-76
2024/01/27 05:03:13;;;;;;;32.92;11.85;;;3.50;99.90;;;;;;5059660;28;20430;-76
2024/01/27 05:05:42;;;;;;;34.13;12.45;;;3.50;99.90;;;;;;5052620;28;20426;-76
2024/01/27 05:08:09;;;;;;;31.60;13.25;;;3.50;99.90;;;;;;5051263;28;20052;-75
2024/01/27 05:10:36;;;;;;;32.95;13.23;;;3.50;99.90;;;;;;5057739;28;20421;-75
2024/01/27 05:13:01;;;;;;;35.88;13.73;;;3.50;99.90;;;;;;5058395;28;20053;-75
2024/01/27 05:15:28;;;;;;;27.88;12.75;;;3.50;99.90;;;;;;5049801;28;20448;-76
2024/01/27 05:17:53;;;;;;;37.13;12.90;;;3.60;99.90;;;;;;5058178;28;20557;-75
2024/01/27 05:20:19;;;;;;;31.77;14.00;;;3.60;99.90;;;;;;5061273;28;20349;-76
2024/01/27 05:22:45;;;;;;;41.20;13.60;;;3.50;99.90;;;;;;5051379;28;20032;-75
2024/01/27 05:25:11;;;;;;;35.63;13.65;;;3.50;99.90;;;;;;5064132;28;20021;-76
2024/01/27 05:27:39;;;;;;;41.17;13.85;;;3.50;99.90;;;;;;5054221;28;20098;-75
2024/01/27 05:30:08;;;;;;;40.28;14.32;;;3.50;99.90;;;;;;5061299;28;20380;-76
2024/01/27 05:32:34;;;;;;;39.28;14.25;;;3.50;99.90;;;;;;5061279;28;20056;-76
2024/01/27 05:35:00;;;;;;;33.22;13.27;;;3.50;99.90;;;;;;5059668;28;20021;-75
2024/01/27 05:37:25;;;;;;;43.55;13.52;;;3.50;99.90;;;;;;5057172;28;20035;-75
2024/01/27 05:39:51;;;;;;;37.80;13.45;;;3.50;99.90;;;;;;5051152;28;20025;-75
2024/01/27 05:42:16;;;;;;;34.28;12.90;;;3.50;99.90;;;;;;5050455;28;20025;-75
2024/01/27 05:44:42;;;;;;;33.63;14.50;;;3.50;99.90;;;;;;5051204;28;20108;-75
2024/01/27 05:47:10;;;;;;;44.10;13.95;;;3.50;99.90;;;;;;5064951;28;20025;-76
2024/01/27 05:49:36;;;;;;;31.98;13.60;;;3.50;99.90;;;;;;5053762;28;20040;-76
2024/01/27 05:52:02;;;;;;;33.03;13.93;;;3.50;99.90;;;;;;5056330;28;20794;-76
2024/01/27 05:54:27;;;;;;;39.35;14.38;;;3.50;99.90;;;;;;5050250;28;20052;-76
2024/01/27 05:56:53;;;;;;;37.63;13.20;;;3.50;99.90;;;;;;5050540;28;20019;-76
2024/01/27 05:59:19;;;;;;;39.33;13.93;;;3.50;99.90;;;;;;5053888;28;20086;-76
2024/01/27 06:01:44;;;;;;;32.70;13.20;;;3.50;99.90;;;;;;5062907;28;20016;-76
2024/01/27 06:04:12;;;;;;;37.83;12.65;;;3.40;99.90;;;;;;5066603;28;20522;-76
2024/01/27 06:06:41;;;;;;;31.85;12.82;;;3.40;99.90;;;;;;5062829;28;20085;-76
2024/01/27 06:09:13;;;;;;;40.22;13.60;;;3.40;99.90;;;;;;5054768;28;20017;-76
2024/01/27 06:11:39;;;;;;;32.75;13.05;;;3.40;99.90;;;;;;5052332;28;20411;-76
2024/01/27 06:14:06;;;;;;;32.58;12.73;;;3.40;99.90;;;;;;5057731;28;20021;-76
2024/01/27 06:16:32;;;;;;;38.05;13.68;;;3.40;99.90;;;;;;5052187;28;20047;-76
2024/01/27 06:18:58;;;;;;;32.92;12.68;;;3.40;99.90;;;;;;5052952;28;20048;-76
2024/01/27 06:21:23;;;;;;;35.72;13.43;;;3.40;99.90;;;;;;5055695;28;20032;-76
2024/01/27 06:23:49;;;;;;;31.20;13.35;;;3.40;99.90;;;;;;5053522;28;20071;-76
2024/01/27 06:26:15;;;;;;;39.42;13.27;;;3.40;99.90;;;;;;5054743;28;20025;-76
2024/01/27 06:28:41;;;;;;;42.30;14.57;;;3.40;99.90;;;;;;5056509;28;20025;-76
2024/01/27 06:31:07;;;;;;;39.97;14.10;;;3.40;99.90;;;;;;5063602;28;20432;-76
2024/01/27 06:33:34;;;;;;;36.63;14.75;;;3.40;99.90;;;;;;5051773;28;20100;-76
2024/01/27 06:36:00;;;;;;;37.33;13.25;;;3.40;99.90;;;;;;5062543;28;20063;-76
2024/01/27 06:38:27;;;;;;;32.60;13.98;;;3.40;99.90;;;;;;5062246;28;20464;-76
2024/01/27 06:40:52;;;;;;;40.13;14.50;;;3.30;99.90;;;;;;5054945;28;20024;-76
2024/01/27 06:43:19;;;;;;;36.00;14.93;;;3.40;99.90;;;;;;5056358;28;20032;-75
2024/01/27 06:45:45;;;;;;;31.05;13.95;;;3.40;99.90;;;;;;5050267;28;20024;-76
2024/01/27 06:48:10;;;;;;;32.90;15.30;;;3.30;99.90;;;;;;5049413;28;20388;-76
2024/01/27 06:50:36;;;;;;;42.35;15.63;;;3.30;99.90;;;;;;5053966;28;20029;-76
2024/01/27 06:53:02;;;;;;;39.95;16.75;;;3.30;99.90;;;;;;5062591;28;20025;-76
2024/01/27 06:55:27;;;;;;;38.50;16.77;;;3.30;99.90;;;;;;5062177;28;20075;-76
2024/01/27 06:57:53;;;;;;;36.78;16.83;;;3.30;99.90;;;;;;5064307;28;20166;-76
2024/01/27 07:00:19;;;;;;;40.47;16.67;;;3.20;99.90;;;;;;5059075;28;20062;-76
2024/01/27 07:02:45;;;;;;;39.10;16.77;;;3.20;99.90;;;;;;5054573;28;20075;-76
2024/01/27 07:05:12;;;;;;;33.67;17.13;;;3.20;99.90;;;;;;5066700;28;20075;-76
2024/01/27 07:07:39;;;;;;;43.60;18.50;;;3.20;99.90;;;;;;5071670;28;20028;-76
2024/01/27 07:10:07;;;;;;;39.33;18.73;;;3.20;99.90;;;;;;5053794;28;20021;-76
2024/01/27 07:12:33;;;;;;;45.13;19.58;;;3.10;99.90;;;;;;5058253;28;20040;-76
2024/01/27 07:14:59;;;;;;;38.30;20.33;;;3.10;99.90;;;;;;5063968;28;20029;-76
2024/01/27 07:17:28;;;;;;;41.33;19.27;;;3.10;99.90;;;;;;5057550;28;20122;-76
2024/01/27 07:19:54;;;;;;;47.20;19.15;;;3.10;99.90;;;;;;5057433;28;20135;-75
2024/01/27 07:22:19;;;;;;;35.53;18.08;;;3.10;99.90;;;;;;5053777;28;20096;-75
2024/01/27 07:24:45;;;;;;;40.63;20.27;;;3.10;99.90;;;;;;5065743;28;20021;-76
2024/01/27 07:27:13;;;;;;;46.40;18.88;;;3.10;99.90;;;;;;5051758;28;20028;-76
2024/01/27 07:29:39;;;;;;;46.58;19.83;;;3.20;99.90;;;;;;5065128;28;20036;-76
2024/01/27 07:32:05;;;;;;;41.47;19.77;;;3.10;99.90;;;;;;5069513;28;20036;-76
2024/01/27 07:34:31;;;;;;;40.17;20.25;;;3.20;99.90;;;;;;5071087;28;20408;-75
2024/01/27 07:36:56;;;;;;;45.30;19.25;;;3.20;99.90;;;;;;5070266;28;20013;-76
2024/01/27 07:39:23;;;;;;;37.67;18.63;;;3.10;99.90;;;;;;5070974;28;20024;-76
2024/01/27 07:41:48;;;;;;;38.65;18.63;;;3.10;99.90;;;;;;5058343;28;20391;-76
2024/01/27 07:44:14;;;;;;;41.75;17.83;;;3.10;99.90;;;;;;5056411;28;20025;-76
2024/01/27 07:46:41;;;;;;;41.58;18.70;;;3.10;99.90;;;;;;5064448;28;20020;-77
2024/01/27 07:49:07;;;;;;;36.72;19.50;;;3.10;99.90;;;;;;5059747;28;20029;-76
2024/01/27 07:51:33;;;;;;;43.40;19.30;;;3.10;99.90;;;;;;5057637;28;20044;-77
2024/01/27 07:54:00;;;;;;;41.40;19.23;;;3.10;99.90;;;;;;5067780;28;20103;-77
2024/01/27 07:56:26;;;;;;;40.03;18.80;;;3.10;99.90;;;;;;5060768;28;20305;-76
2024/01/27 07:58:52;;;;;;;39.88;19.42;;;3.20;99.90;;;;;;5065934;28;20052;-76
2024/01/27 08:01:18;;;;;;;46.13;19.60;;;3.20;99.90;;;;;;5056987;28;20476;-76
2024/01/27 08:03:44;;;;;;;40.95;19.63;;;3.20;99.90;;;;;;5053245;28;20040;-76
2024/01/27 08:06:27;;;;;;;45.80;19.90;;;3.20;99.90;;;;;;5056280;28;20464;-77
2024/01/27 08:08:53;;;;;;;40.00;19.20;;;3.20;99.90;;;;;;5053081;28;20013;-76
2024/01/27 08:11:18;;;;;;;42.67;20.67;;;3.20;99.90;;;;;;5058618;28;20036;-76
2024/01/27 08:13:44;;;;;;;43.05;20.17;;;3.30;99.90;;;;;;5053341;28;20032;-76
2024/01/27 08:16:12;;;;;;;39.97;19.15;;;3.30;99.90;;;;;;5066686;28;20478;-77
2024/01/27 08:18:38;;;;;;;45.95;19.48;;;3.30;99.90;;;;;;5071530;28;20139;-77
2024/01/27 08:21:04;;;;;;;45.25;18.80;;;3.30;99.90;;;;;;5063765;28;20060;-77
2024/01/27 08:23:30;;;;;;;36.88;19.08;;;3.30;99.90;;;;;;5052119;28;20025;-77
2024/01/27 08:25:56;;;;;;;40.35;20.25;;;3.30;99.90;;;;;;5067508;28;20021;-77
2024/01/27 08:28:22;;;;;;;40.47;19.25;;;3.30;99.90;;;;;;5063610;28;20025;-76
2024/01/27 08:30:48;;;;;;;40.83;20.67;;;3.30;99.90;;;;;;5060274;28;20023;-76
2024/01/27 08:33:14;;;;;;;40.58;19.90;;;3.30;99.90;;;;;;5066761;28;20042;-77
2024/01/27 08:35:39;;;;;;;51.40;20.42;;;3.40;99.90;;;;;;5057379;28;20013;-77
2024/01/27 08:38:06;;;;;;;41.38;20.35;;;3.40;99.90;;;;;;5059525;28;20017;-76
2024/01/27 08:40:32;;;;;;;42.65;19.52;;;3.40;99.90;;;;;;5052881;28;20104;-77
2024/01/27 08:42:57;;;;;;;39.72;19.35;;;3.40;99.90;;;;;;5062651;28;20020;-77
2024/01/27 08:45:23;;;;;;;45.58;21.48;;;3.40;99.90;;;;;;5059076;28;20041;-77
2024/01/27 08:47:49;;;;;;;44.17;20.95;;;3.40;99.90;;;;;;5059692;28;20398;-76
2024/01/27 08:50:14;;;;;;;44.15;21.60;;;3.50;99.90;;;;;;5066786;28;20036;-75
2024/01/27 08:52:40;;;;;;;39.47;21.38;;;3.50;99.90;;;;;;5063905;28;20165;-75
2024/01/27 08:55:06;;;;;;;50.80;22.33;;;3.50;99.90;;;;;;5063291;28;20028;-75
2024/01/27 08:57:31;;;;;;;42.60;21.08;;;3.50;99.90;;;;;;5062226;28;20017;-76
2024/01/27 08:59:57;;;;;;;43.13;20.45;;;3.60;99.90;;;;;;5063156;28;20212;-77
2024/01/27 09:02:23;;;;;;;47.78;20.13;;;3.60;99.90;;;;;;5063397;28;20060;-76
2024/01/27 09:04:49;;;;;;;42.75;20.58;;;3.60;99.90;;;;;;5053684;28;20052;-76
2024/01/27 09:07:15;;;;;;;40.92;20.75;;;3.70;99.90;;;;;;5065633;28;20023;-77
2024/01/27 09:09:40;;;;;;;43.80;19.85;;;3.70;99.90;;;;;;5065543;28;20024;-76
2024/01/27 09:12:06;;;;;;;40.50;20.65;;;3.80;99.90;;;;;;5058906;28;20027;-77
2024/01/27 09:14:33;;;;;;;43.13;20.58;;;3.80;99.90;;;;;;5058630;28;20028;-77
2024/01/27 09:17:00;;;;;;;43.13;20.35;;;3.80;99.90;;;;;;5071047;28;20047;-76
2024/01/27 09:19:26;;;;;;;37.92;20.10;;;3.90;99.90;;;;;;5061430;28;20076;-75
2024/01/27 09:21:51;;;;;;;42.10;19.60;;;4.00;99.90;;;;;;5063147;28;20048;-75
2024/01/27 09:24:17;;;;;;;44.63;19.02;;;4.00;99.90;;;;;;5062003;28;20025;-74
2024/01/27 09:26:43;;;;;;;49.88;20.27;;;4.10;99.90;;;;;;5051973;28;20025;-75
2024/01/27 09:29:09;;;;;;;41.67;20.15;;;4.10;99.90;;;;;;5053933;28;20331;-74
2024/01/27 09:31:35;;;;;;;42.85;19.25;;;4.20;99.90;;;;;;5066134;28;20057;-75
2024/01/27 09:34:01;;;;;;;43.15;17.98;;;4.30;99.90;;;;;;5059996;28;20067;-74
2024/01/27 09:36:26;;;;;;;41.63;18.05;;;4.40;99.90;;;;;;5060393;28;20021;-75
2024/01/27 09:38:52;;;;;;;34.20;16.42;;;4.40;99.90;;;;;;5064900;28;20442;-74
2024/01/27 09:41:18;;;;;;;39.10;15.77;;;4.60;99.90;;;;;;5052644;28;20080;-74
2024/01/27 09:43:45;;;;;;;39.95;15.55;;;4.60;99.90;;;;;;5059886;28;20412;-74
2024/01/27 09:46:15;;;;;;;35.10;15.38;;;4.70;99.90;;;;;;5058606;28;20021;-74
2024/01/27 09:48:41;;;;;;;37.17;14.70;;;4.80;99.90;;;;;;5055584;28;20513;-74
2024/01/27 09:51:09;;;;;;;34.25;14.63;;;4.90;99.90;;;;;;5049725;28;20067;-74
2024/01/27 09:53:35;;;;;;;38.45;14.63;;;5.00;99.90;;;;;;5051526;28;20478;-74
2024/01/27 09:56:03;;;;;;;45.10;13.88;;;5.00;99.90;;;;;;5061962;28;20032;-74
2024/01/27 09:58:29;;;;;;;36.08;13.88;;;5.20;99.90;;;;;;5061233;28;20056;-74
2024/01/27 10:00:57;;;;;;;36.05;14.10;;;5.20;99.90;;;;;;5052491;28;20078;-74
2024/01/27 10:03:24;;;;;;;33.78;13.07;;;5.30;99.90;;;;;;5065044;28;20475;-74
2024/01/27 10:05:51;;;;;;;38.70;13.73;;;5.40;99.90;;;;;;5053470;28;20021;-74
2024/01/27 10:08:17;;;;;;;30.52;12.27;;;5.60;99.90;;;;;;5050647;28;20029;-74
2024/01/27 10:10:43;;;;;;;42.47;13.55;;;5.60;99.90;;;;;;5071789;28;20543;-74
2024/01/27 10:13:12;;;;;;;44.53;13.57;;;5.80;99.90;;;;;;5065779;28;20059;-74
2024/01/27 10:15:38;;;;;;;31.88;12.63;;;5.80;99.90;;;;;;5063170;28;20111;-74
2024/01/27 10:18:07;;;;;;;33.17;12.13;;;5.90;99.90;;;;;;5054733;28;20546;-74
2024/01/27 10:20:33;;;;;;;34.45;12.02;;;6.00;99.90;;;;;;5058021;28;20041;-74
2024/01/27 10:23:10;;;;;;;29.13;11.68;;;6.20;99.90;;;;;;5063476;28;20035;-74
2024/01/27 10:25:40;;;;;;;31.27;11.45;;;6.20;99.90;;;;;;5061023;28;20090;-74
2024/01/27 10:28:09;;;;;;;30.90;10.77;;;6.30;99.90;;;;;;5049832;28;20078;-74
2024/01/27 10:30:35;;;;;;;33.33;10.70;;;6.40;99.90;;;;;;5061294;28;20067;-74
2024/01/27 10:33:01;;;;;;;33.25;10.48;;;6.40;99.90;;;;;;5048916;28;20025;-74
2024/01/27 10:35:27;;;;;;;27.20;9.57;;;6.50;99.90;;;;;;5053551;28;20017;-74
2024/01/27 10:37:54;;;;;;;27.13;9.43;;;6.60;99.90;;;;;;5060006;28;20120;-74
2024/01/27 10:40:19;;;;;;;39.35;10.10;;;6.70;99.90;;;;;;5049086;28;20029;-74
2024/01/27 10:42:46;;;;;;;31.20;9.13;;;6.80;99.90;;;;;;5060342;28;20147;-74
2024/01/27 10:45:12;;;;;;;34.22;10.00;;;6.90;99.90;;;;;;5059157;28;20391;-73
2024/01/27 10:47:39;;;;;;;26.42;9.23;;;7.00;99.90;;;;;;5054522;28;20096;-74
2024/01/27 10:50:08;;;;;;;26.48;8.75;;;7.10;99.90;;;;;;5067755;28;20036;-75
2024/01/27 10:52:38;;;;;;;34.30;8.60;;;7.10;99.90;;;;;;5054638;28;20039;-74
2024/01/27 10:55:07;;;;;;;32.90;8.85;;;7.20;99.90;;;;;;5060694;28;20020;-74
2024/01/27 10:57:34;;;;;;;24.98;9.00;;;7.30;99.90;;;;;;5054009;28;20096;-74
2024/01/27 11:00:03;;;;;;;29.08;8.98;;;7.40;99.90;;;;;;5058736;28;20445;-74
2024/01/27 11:02:33;;;;;;;25.13;8.73;;;7.40;99.90;;;;;;5056687;28;20021;-74
2024/01/27 11:05:03;;;;;;;27.90;8.63;;;7.50;99.90;;;;;;5038023;28;20545;-75
2024/01/27 11:07:32;;;;;;;23.42;8.27;;;7.50;99.90;;;;;;5057941;28;20064;-74
2024/01/27 11:09:57;;;;;;;24.70;7.75;;;7.50;99.90;;;;;;5055437;28;20013;-75
2024/01/27 11:12:24;;;;;;;25.90;9.02;;;7.60;99.90;;;;;;5052999;28;20044;-75
2024/01/27 11:14:51;;;;;;;19.00;7.57;;;7.60;99.90;;;;;;5052864;28;20119;-75
2024/01/27 11:17:17;;;;;;;32.00;8.88;;;7.60;99.90;;;;;;5049506;28;20024;-75
2024/01/27 11:19:45;;;;;;;30.33;7.65;;;7.60;99.90;;;;;;5059242;28;20032;-75
2024/01/27 11:22:27;;;;;;;25.80;7.45;;;7.60;99.90;;;;;;5048506;28;20037;-75
2024/01/27 11:25:06;;;;;;;29.85;8.32;;;7.70;99.90;;;;;;5051633;28;20103;-75
2024/01/27 11:27:31;;;;;;;26.13;7.88;;;7.70;99.90;;;;;;5057554;28;20025;-75
2024/01/27 11:29:57;;;;;;;26.05;8.43;;;7.70;99.90;;;;;;5053314;28;20103;-75
2024/01/27 11:32:23;;;;;;;29.15;7.95;;;7.70;99.90;;;;;;5066538;28;20058;-75
2024/01/27 11:34:48;;;;;;;24.42;7.93;;;7.70;99.90;;;;;;5066333;28;20029;-75
2024/01/27 11:37:15;;;;;;;32.28;8.35;;;7.80;99.90;;;;;;5048431;28;20033;-75
2024/01/27 11:39:41;;;;;;;29.83;8.50;;;7.80;99.90;;;;;;5049969;28;20043;-75
2024/01/27 11:42:13;;;;;;;23.70;7.88;;;7.80;99.90;;;;;;5060586;28;20446;-74
2024/01/27 11:44:41;;;;;;;26.63;7.88;;;7.80;99.90;;;;;;5061156;28;20029;-75
2024/01/27 11:47:18;;;;;;;26.75;8.50;;;7.80;99.90;;;;;;5063113;28;20009;-75
2024/01/27 11:49:53;;;;;;;25.92;8.30;;;7.80;99.90;;;;;;5062221;28;20127;-75
2024/01/27 11:52:19;;;;;;;29.17;9.13;;;7.90;99.90;;;;;;5061679;28;20420;-75
2024/01/27 11:54:44;;;;;;;30.67;8.57;;;8.00;99.90;;;;;;5064471;28;20481;-75
2024/01/27 11:57:10;;;;;;;28.45;8.02;;;8.00;99.90;;;;;;5063496;28;20504;-75
2024/01/27 11:59:35;;;;;;;27.48;8.00;;;8.10;99.90;;;;;;5066787;28;20024;-74
2024/01/27 12:02:02;;;;;;;24.48;8.45;;;8.10;99.90;;;;;;5063560;28;20432;-75
2024/01/27 12:04:28;;;;;;;27.67;7.85;;;8.10;99.90;;;;;;5061685;28;20019;-75
2024/01/27 12:06:54;;;;;;;28.20;7.95;;;8.10;99.90;;;;;;5068345;28;20021;-75
2024/01/27 12:09:19;;;;;;;28.10;8.77;;;8.10;99.90;;;;;;5067661;28;20380;-74
2024/01/27 12:11:45;;;;;;;29.40;8.02;;;8.10;99.90;;;;;;5067677;28;20049;-75
2024/01/27 12:14:11;;;;;;;26.20;7.93;;;8.20;99.90;;;;;;5067090;28;20046;-76
2024/01/27 12:16:38;;;;;;;26.10;7.72;;;8.20;99.90;;;;;;5065752;28;20497;-75
2024/01/27 12:19:04;;;;;;;24.65;7.15;;;8.10;99.90;;;;;;5071673;28;20369;-76
2024/01/27 12:21:30;;;;;;;34.80;8.27;;;8.10;99.90;;;;;;5069225;28;20064;-75
2024/01/27 12:23:57;;;;;;;30.75;7.30;;;8.10;99.90;;;;;;5069838;28;20099;-76
2024/01/27 12:26:25;;;;;;;28.10;8.13;;;8.10;99.90;;;;;;5062731;28;20447;-75
2024/01/27 12:28:51;;;;;;;26.20;7.93;;;8.10;99.90;;;;;;5055747;28;20025;-76
2024/01/27 12:31:17;;;;;;;28.95;7.40;;;8.10;99.90;;;;;;5064229;28;20040;-75
2024/01/27 12:33:56;;;;;;;32.47;8.25;;;8.10;99.90;;;;;;5067920;28;20044;-76
2024/01/27 12:36:22;;;;;;;30.30;8.68;;;8.10;99.90;;;;;;5062279;28;20024;-76